Cedar Crest, New Mexico
Current Conditions -  °F | °C
As of 7:52 PM on Monday 20 Oct 2014 (Local Time) from KABQ Reporting Station
Light Rain Light Rain  
Wind Chill: 59°   Ceiling: 8000
Heat Index: 59°   Visibility: 10mi
Dew Point: 51°   Wind: 12mph
Humidity: 75%   Direction: 60°ENE
Pressure: 30.16"   Gusts: NA
Location:  35.11°N, 106.38°W
Report Text: KABQ 210152Z 06010KT 10SM -RA SCT045 BKN080 OVC120 15/11 A3016 RMK AO2 LTG DSNT SE RAB34 SLP171 MTNS OBSC NE-SE P0001 T01500106
Loading
Personal Weather Stations






























Interactive Weather Map
Tropical Storm Tracking
New forecast layout! Learn more

10-Day Weather Forecast

Advertisements
Track Severe Weather on mobile